Time;durP1;ratioP1;P1;durP2;ratioP2;P2;SDS_P1;SDS_P2;PMS_P1;PMS_P2;Temp;Humidity;BMP_temperature;BMP_pressure;BME280_temperature;BME280_humidity;BME280_pressure;Samples;Min_cycle;Max_cycle;Signal;HPM_P1;HPM_P2
2022/10/28 00:00:08;;;;;;;;;;;;;;;20.21;50.06;100477.25;4480539;32;34528;-87
2022/10/28 00:02:37;;;;;;;;;;;;;;;19.34;52.34;100482.81;4472940;32;33852;-87
2022/10/28 00:05:04;;;;;;;;;;;;;;;19.71;51.51;100480.13;4465693;32;34448;-87
2022/10/28 00:07:31;;;;;;;;;;;;;;;19.96;50.78;100480.87;4470905;32;34075;-88
2022/10/28 00:09:58;;;;;;;;;;;;;;;19.61;51.70;100477.47;4480001;32;33326;-87
2022/10/28 00:12:26;;;;;;;;;;;;;;;19.61;51.55;100481.84;4481982;32;34326;-87
2022/10/28 00:14:53;;;;;;;;;;;;;;;20.06;50.13;100479.94;4458740;32;34467;-86
2022/10/28 00:17:20;;;;;;;;;;;;;;;20.20;49.87;100480.75;4450464;32;34838;-87
2022/10/28 00:19:47;;;;;;;;;;;;;;;20.69;48.73;100477.84;4475338;32;33832;-86
2022/10/28 00:22:14;;;;;;;;;;;;;;;20.59;48.94;100473.50;4481906;32;34872;-87
2022/10/28 00:24:42;;;;;;;;;;;;;;;20.12;49.79;100474.66;4462437;32;34140;-87
2022/10/28 00:27:09;;;;;;;;;;;;;;;20.14;50.01;100475.53;4452882;32;34961;-86
2022/10/28 00:29:36;;;;;;;;;;;;;;;20.37;49.43;100470.13;4474843;32;33213;-88
2022/10/28 00:32:04;;;;;;;;;;;;;;;20.58;48.93;100477.91;4483770;32;34272;-87
2022/10/28 00:34:31;;;;;;;;;;;;;;;19.67;51.53;100473.97;4472931;32;35364;-86
2022/10/28 00:36:58;;;;;;;;;;;;;;;20.37;49.53;100475.38;4468394;32;35227;-88
2022/10/28 00:39:26;;;;;;;;;;;;;;;20.62;48.91;100477.00;4477198;32;33245;-87
2022/10/28 00:41:55;;;;;;;;;;;;;;;19.95;50.27;100476.50;4468541;32;34828;-87
2022/10/28 00:44:40;;;;;;;;;;;;;;;20.45;49.23;100481.47;4468128;32;35329;-88
2022/10/28 00:47:28;;;;;;;;;;;;;;;21.18;47.30;100479.19;4468231;32;33251;-87
2022/10/28 00:49:56;;;;;;;;;;;;;;;20.15;49.59;100482.53;4453358;32;32950;-88
2022/10/28 00:52:25;;;;;;;;;;;;;;;19.84;50.71;100473.91;4454214;32;34266;-87
2022/10/28 00:54:52;;;;;;;;;;;;;;;19.59;51.08;100473.09;4441466;32;34462;-87
2022/10/28 00:57:21;;;;;;;;;;;;;;;20.15;49.94;100475.53;4465232;32;34224;-88
2022/10/28 00:59:49;;;;;;;;;;;;;;;20.31;49.53;100472.81;4455281;32;31792;-87
2022/10/28 01:02:16;;;;;;;;;;;;;;;20.76;48.46;100469.00;4468086;32;34228;-88
2022/10/28 01:04:43;;;;;;;;;;;;;;;21.03;47.81;100467.87;4453789;32;34316;-87
2022/10/28 01:07:10;;;;;;;;;;;;;;;20.46;48.94;100471.84;4473643;32;34013;-87
2022/10/28 01:09:38;;;;;;;;;;;;;;;20.38;49.29;100470.13;4471033;32;33426;-87
2022/10/28 01:12:13;;;;;;;;;;;;;;;20.09;49.86;100467.66;4449374;32;34143;-87
2022/10/28 01:15:10;;;;;;;;;;;;;;;20.00;49.85;100470.34;4460903;32;34106;-87
2022/10/28 01:17:37;;;;;;;;;;;;;;;20.05;49.95;100467.69;4458026;32;33986;-87
2022/10/28 01:20:27;;;;;;;;;;;;;;;19.27;52.35;100466.16;4480885;32;33518;-87
2022/10/28 01:23:17;;;;;;;;;;;;;;;19.03;52.84;100474.09;4453598;32;34621;-87
2022/10/28 01:25:44;;;;;;;;;;;;;;;19.48;51.64;100459.97;4435891;32;35261;-88
2022/10/28 01:28:24;;;;;;;;;;;;;;;19.36;51.97;100460.03;4477417;32;34228;-88
2022/10/28 01:31:04;;;;;;;;;;;;;;;19.98;50.35;100453.66;4464033;32;34285;-87
2022/10/28 01:33:35;;;;;;;;;;;;;;;20.46;49.07;100450.75;4455959;32;33511;-86
2022/10/28 01:36:11;;;;;;;;;;;;;;;20.63;48.67;100456.78;4438570;32;33980;-88
2022/10/28 01:38:41;;;;;;;;;;;;;;;20.53;48.83;100452.47;4452246;32;34633;-87
2022/10/28 01:41:32;;;;;;;;;;;;;;;19.99;49.93;100449.28;4458337;32;34128;-87
2022/10/28 01:44:12;;;;;;;;;;;;;;;19.78;50.44;100451.13;4432516;32;34770;-88
2022/10/28 01:46:40;;;;;;;;;;;;;;;19.38;51.90;100445.97;4453647;32;34150;-89
2022/10/28 01:49:28;;;;;;;;;;;;;;;20.45;49.12;100441.09;4453526;32;34039;-87
2022/10/28 01:51:58;;;;;;;;;;;;;;;20.52;48.89;100440.19;4443377;32;33737;-88
2022/10/28 01:54:26;;;;;;;;;;;;;;;20.53;48.83;100447.19;4458241;32;35019;-87
2022/10/28 01:56:53;;;;;;;;;;;;;;;20.65;48.75;100447.13;4438040;32;34462;-86
2022/10/28 01:59:24;;;;;;;;;;;;;;;20.82;48.41;100449.63;4451973;32;34255;-87
2022/10/28 02:01:52;;;;;;;;;;;;;;;20.89;47.87;100452.19;4469630;32;33950;-88
2022/10/28 02:04:20;;;;;;;;;;;;;;;20.93;47.72;100454.78;4460244;32;34335;-87
2022/10/28 02:06:49;;;;;;;;;;;;;;;21.10;47.27;100452.84;4456704;32;34853;-86
2022/10/28 02:09:16;;;;;;;;;;;;;;;20.87;47.69;100447.81;4468621;32;34143;-87
2022/10/28 02:11:43;;;;;;;;;;;;;;;20.78;48.08;100446.13;4472892;32;34449;-89
2022/10/28 02:14:21;;;;;;;;;;;;;;;20.81;48.01;100451.38;4466588;32;33638;-88
2022/10/28 02:16:51;;;;;;;;;;;;;;;20.75;48.02;100454.06;4474510;32;35275;-88
2022/10/28 02:19:24;;;;;;;;;;;;;;;20.92;47.62;100448.66;4468659;32;34195;-87
2022/10/28 02:22:10;;;;;;;;;;;;;;;20.61;48.36;100441.00;4481565;31;34386;-87
2022/10/28 02:24:40;;;;;;;;;;;;;;;20.06;49.51;100445.72;4466945;32;34912;-87
2022/10/28 02:27:19;;;;;;;;;;;;;;;20.08;49.76;100436.09;4473293;32;35392;-88
2022/10/28 02:29:52;;;;;;;;;;;;;;;20.23;49.13;100443.87;4459490;32;34562;-87
2022/10/28 02:32:20;;;;;;;;;;;;;;;20.60;48.53;100444.50;4482908;32;32932;-88
2022/10/28 02:34:48;;;;;;;;;;;;;;;20.12;49.81;100450.97;4461517;32;34010;-88
2022/10/28 02:37:19;;;;;;;;;;;;;;;20.67;48.56;100449.75;4462936;32;34084;-88
2022/10/28 02:39:48;;;;;;;;;;;;;;;20.96;47.73;100449.50;4474068;32;34484;-87
2022/10/28 02:42:19;;;;;;;;;;;;;;;20.74;47.79;100449.69;4437697;32;34241;-87
2022/10/28 02:44:47;;;;;;;;;;;;;;;20.53;48.46;100450.75;4453996;32;35217;-88
2022/10/28 02:47:17;;;;;;;;;;;;;;;21.06;47.47;100443.22;4467732;32;34916;-87
2022/10/28 02:49:49;;;;;;;;;;;;;;;21.18;47.29;100445.78;4453182;32;34071;-88
2022/10/28 02:52:16;;;;;;;;;;;;;;;21.05;47.50;100444.13;4453208;32;33444;-86
2022/10/28 02:54:54;;;;;;;;;;;;;;;20.41;48.83;100443.72;4459037;32;34714;-87
2022/10/28 02:57:25;;;;;;;;;;;;;;;20.65;48.37;100432.19;4453896;32;35809;-89
2022/10/28 02:59:56;;;;;;;;;;;;;;;21.19;47.08;100426.41;4449517;32;34914;-87
2022/10/28 03:02:24;;;;;;;;;;;;;;;20.76;47.95;100425.94;4467393;32;33378;-87
2022/10/28 03:04:51;;;;;;;;;;;;;;;20.14;49.92;100429.00;4440212;32;34433;-89
2022/10/28 03:07:18;;;;;;;;;;;;;;;19.99;50.21;100428.22;4468372;32;34611;-89
2022/10/28 03:09:46;;;;;;;;;;;;;;;19.78;50.63;100424.81;4466030;32;34202;-88
2022/10/28 03:12:13;;;;;;;;;;;;;;;19.74;50.91;100432.75;4464948;32;33192;-87
2022/10/28 03:14:41;;;;;;;;;;;;;;;19.38;51.70;100434.56;4471607;32;33640;-87
2022/10/28 03:17:08;;;;;;;;;;;;;;;20.48;49.11;100433.16;4474687;32;34627;-87
2022/10/28 03:19:35;;;;;;;;;;;;;;;20.74;48.46;100428.59;4466963;32;34082;-87
2022/10/28 03:22:02;;;;;;;;;;;;;;;20.30;49.53;100434.16;4457795;32;32612;-87
2022/10/28 03:24:30;;;;;;;;;;;;;;;20.42;49.09;100434.97;4473175;32;34121;-87
2022/10/28 03:26:57;;;;;;;;;;;;;;;20.50;48.93;100434.09;4475651;32;34496;-88
2022/10/28 03:29:24;;;;;;;;;;;;;;;20.28;49.55;100438.59;4472705;32;35085;-88
2022/10/28 03:31:51;;;;;;;;;;;;;;;19.95;50.22;100445.78;4448236;32;33373;-88
2022/10/28 03:34:19;;;;;;;;;;;;;;;20.13;49.85;100447.44;4464311;32;34021;-87
2022/10/28 03:36:46;;;;;;;;;;;;;;;20.54;48.83;100447.22;4482651;32;34496;-88
2022/10/28 03:39:13;;;;;;;;;;;;;;;20.64;48.61;100442.72;4476434;32;34061;-88
2022/10/28 03:41:40;;;;;;;;;;;;;;;20.62;48.58;100442.75;4467364;32;32702;-88
2022/10/28 03:44:07;;;;;;;;;;;;;;;20.55;48.39;100435.78;4471098;32;33619;-87
2022/10/28 03:46:35;;;;;;;;;;;;;;;20.55;48.62;100441.03;4468418;32;35052;-88
2022/10/28 03:49:02;;;;;;;;;;;;;;;20.47;48.54;100439.34;4478250;32;34684;-88
2022/10/28 03:51:29;;;;;;;;;;;;;;;19.72;50.75;100437.13;4451143;32;32986;-87
2022/10/28 03:53:57;;;;;;;;;;;;;;;18.59;54.12;100444.28;4467632;32;33856;-89
2022/10/28 03:56:24;;;;;;;;;;;;;;;19.06;52.81;100439.94;4471089;32;34464;-86
2022/10/28 03:58:51;;;;;;;;;;;;;;;19.36;52.16;100431.97;4466434;32;34003;-88
2022/10/28 04:01:23;;;;;;;;;;;;;;;19.43;51.98;100424.91;4462969;32;34128;-88
2022/10/28 04:03:51;;;;;;;;;;;;;;;18.90;53.55;100441.66;4462868;32;33967;-88
2022/10/28 04:06:18;;;;;;;;;;;;;;;19.63;51.65;100430.16;4463761;32;35165;-88
2022/10/28 04:08:45;;;;;;;;;;;;;;;19.85;50.96;100431.81;4462149;32;33731;-88
2022/10/28 04:11:12;;;;;;;;;;;;;;;19.59;51.56;100428.38;4468330;32;34285;-88
2022/10/28 04:13:40;;;;;;;;;;;;;;;18.88;53.58;100431.16;4470745;32;35000;-88
2022/10/28 04:16:07;;;;;;;;;;;;;;;19.43;52.14;100423.19;4470923;32;34820;-89
2022/10/28 04:18:34;;;;;;;;;;;;;;;19.68;51.45;100425.75;4460022;32;34332;-88
2022/10/28 04:21:01;;;;;;;;;;;;;;;18.46;54.40;100427.63;4468496;32;34082;-88
2022/10/28 04:23:29;;;;;;;;;;;;;;;19.34;52.31;100423.19;4470823;32;33838;-88
2022/10/28 04:25:56;;;;;;;;;;;;;;;18.87;53.79;100426.81;4469538;32;33897;-88
2022/10/28 04:28:23;;;;;;;;;;;;;;;19.23;52.97;100421.47;4470615;32;33772;-88
2022/10/28 04:30:50;;;;;;;;;;;;;;;18.85;53.99;100427.66;4459290;32;32882;-88
2022/10/28 04:33:18;;;;;;;;;;;;;;;19.44;52.30;100418.78;4458647;32;32576;-88
2022/10/28 04:35:45;;;;;;;;;;;;;;;19.73;51.54;100415.19;4458707;32;33758;-88
2022/10/28 04:38:13;;;;;;;;;;;;;;;19.59;51.49;100409.97;4477361;32;34817;-88
2022/10/28 04:40:40;;;;;;;;;;;;;;;18.98;53.41;100415.38;4476003;32;33517;-88
2022/10/28 04:43:07;;;;;;;;;;;;;;;19.25;52.75;100407.47;4459032;32;34348;-87
2022/10/28 04:45:36;;;;;;;;;;;;;;;18.69;54.49;100411.00;4468033;32;33953;-87
2022/10/28 04:48:03;;;;;;;;;;;;;;;18.84;53.75;100410.16;4467776;32;34827;-87
2022/10/28 04:50:31;;;;;;;;;;;;;;;18.70;54.60;100412.75;4465324;32;33944;-88
2022/10/28 04:52:59;;;;;;;;;;;;;;;17.90;57.05;100415.28;4451179;32;34932;-87
2022/10/28 04:55:27;;;;;;;;;;;;;;;16.96;59.45;100408.69;4452778;32;34064;-89
2022/10/28 04:57:55;;;;;;;;;;;;;;;17.82;57.49;100408.28;4452064;32;34863;-88
2022/10/28 05:00:26;;;;;;;;;;;;;;;18.45;55.55;100402.25;4437912;32;33913;-91
2022/10/28 05:02:55;;;;;;;;;;;;;;;19.08;53.76;100401.34;4423999;32;34040;-90
2022/10/28 05:05:24;;;;;;;;;;;;;;;18.74;54.73;100398.78;4423001;32;34165;-89
2022/10/28 05:07:56;;;;;;;;;;;;;;;18.87;54.30;100405.78;4436816;32;34190;-88
2022/10/28 05:10:24;;;;;;;;;;;;;;;18.89;54.08;100404.00;4448441;32;34011;-89
2022/10/28 05:12:51;;;;;;;;;;;;;;;19.37;53.04;100401.28;4451287;32;34109;-91
2022/10/28 05:15:18;;;;;;;;;;;;;;;19.86;51.72;100394.06;4452193;32;34458;-88
2022/10/28 05:17:46;;;;;;;;;;;;;;;19.68;51.84;100397.66;4452116;32;34801;-91
2022/10/28 05:20:14;;;;;;;;;;;;;;;19.76;51.61;100395.00;4438530;32;33264;-90
2022/10/28 05:22:45;;;;;;;;;;;;;;;19.75;51.48;100402.91;4451715;32;34257;-90
2022/10/28 05:25:12;;;;;;;;;;;;;;;19.22;52.66;100410.09;4452478;32;34086;-87
2022/10/28 05:27:39;;;;;;;;;;;;;;;19.67;51.63;100411.72;4438343;32;34842;-87
2022/10/28 05:30:07;;;;;;;;;;;;;;;19.97;50.88;100409.81;4452421;32;34039;-87
2022/10/28 05:32:35;;;;;;;;;;;;;;;19.98;50.82;100402.78;4452163;32;34815;-88
2022/10/28 05:35:02;;;;;;;;;;;;;;;20.14;50.34;100414.97;4452246;32;35168;-87
2022/10/28 05:37:29;;;;;;;;;;;;;;;19.96;50.74;100418.56;4451833;32;35140;-88
2022/10/28 05:39:56;;;;;;;;;;;;;;;20.48;49.59;100418.22;4438192;32;33551;-87
2022/10/28 05:42:24;;;;;;;;;;;;;;;19.79;50.70;100421.31;4452223;32;34422;-87
2022/10/28 05:44:51;;;;;;;;;;;;;;;19.88;50.79;100415.97;4451522;32;35238;-87
2022/10/28 05:47:18;;;;;;;;;;;;;;;19.15;52.68;100422.38;4451414;32;33910;-89
2022/10/28 05:49:45;;;;;;;;;;;;;;;19.00;52.90;100426.78;4467404;32;33256;-89
2022/10/28 05:52:13;;;;;;;;;;;;;;;19.07;53.28;100429.41;4467568;32;34350;-88
2022/10/28 05:54:40;;;;;;;;;;;;;;;19.56;51.83;100426.63;4467963;32;34276;-92
2022/10/28 05:57:07;;;;;;;;;;;;;;;18.99;53.62;100427.66;4468173;32;34062;-90
2022/10/28 05:59:34;;;;;;;;;;;;;;;18.43;55.05;100438.13;4467885;32;33085;-90
2022/10/28 06:02:02;;;;;;;;;;;;;;;19.35;52.57;100434.56;4468140;32;33853;-90
2022/10/28 06:04:30;;;;;;;;;;;;;;;18.19;55.84;100440.72;4468011;32;33519;-89
2022/10/28 06:06:57;;;;;;;;;;;;;;;18.65;54.54;100432.91;4467849;32;33723;-91
2022/10/28 06:09:25;;;;;;;;;;;;;;;19.62;51.87;100434.53;4468128;32;33497;-91
2022/10/28 06:11:53;;;;;;;;;;;;;;;19.58;52.08;100443.28;4467901;32;34006;-90
2022/10/28 06:14:20;;;;;;;;;;;;;;;19.78;51.38;100443.25;4467700;32;35321;-91
2022/10/28 06:16:47;;;;;;;;;;;;;;;19.72;51.50;100443.25;4467715;32;34104;-90
2022/10/28 06:19:15;;;;;;;;;;;;;;;19.81;51.17;100445.88;4467778;32;34325;-91
2022/10/28 06:21:42;;;;;;;;;;;;;;;19.44;52.17;100443.34;4466334;32;35020;-91
2022/10/28 06:24:09;;;;;;;;;;;;;;;18.99;53.57;100452.19;4467764;32;34470;-89
2022/10/28 06:26:40;;;;;;;;;;;;;;;18.67;54.45;100450.41;4467639;32;34242;-92
2022/10/28 06:29:09;;;;;;;;;;;;;;;18.36;55.13;100446.87;4467724;32;33591;-88
2022/10/28 06:31:39;;;;;;;;;;;;;;;18.52;54.53;100449.50;4453337;32;35740;-90
2022/10/28 06:34:07;;;;;;;;;;;;;;;19.24;52.63;100444.25;4467472;32;33751;-91
2022/10/28 06:36:35;;;;;;;;;;;;;;;18.87;53.86;100458.34;4467636;32;34001;-92
2022/10/28 06:39:02;;;;;;;;;;;;;;;19.26;52.80;100446.00;4453464;32;32908;-91
2022/10/28 06:41:29;;;;;;;;;;;;;;;19.65;51.72;100447.66;4467313;32;34169;-91
2022/10/28 06:43:56;;;;;;;;;;;;;;;19.00;53.20;100445.19;4467631;32;33748;-91
2022/10/28 06:46:24;;;;;;;;;;;;;;;19.50;51.97;100450.31;4467822;32;34097;-91
2022/10/28 06:48:52;;;;;;;;;;;;;;;19.66;51.58;100456.44;4467296;32;34181;-91
2022/10/28 06:51:20;;;;;;;;;;;;;;;19.70;51.27;100450.31;4467848;32;34281;-90
2022/10/28 06:53:47;;;;;;;;;;;;;;;19.66;51.35;100454.69;4453703;32;34756;-91
2022/10/28 06:56:14;;;;;;;;;;;;;;;18.44;54.47;100465.25;4453313;32;34064;-91
2022/10/28 06:58:42;;;;;;;;;;;;;;;18.91;53.48;100465.34;4467838;32;32891;-90
2022/10/28 07:01:09;;;;;;;;;;;;;;;19.75;51.13;100460.81;4467738;32;35096;-91
2022/10/28 07:03:36;;;;;;;;;;;;;;;19.44;52.13;100461.75;4466993;32;34705;-93
2022/10/28 07:06:05;;;;;;;;;;;;;;;19.89;51.08;100464.25;4467444;32;34140;-92
2022/10/28 07:08:32;;;;;;;;;;;;;;;19.76;51.45;100463.41;4468588;32;33895;-90
2022/10/28 07:11:01;;;;;;;;;;;;;;;19.39;51.98;100473.12;4467392;32;33954;-92
2022/10/28 07:13:28;;;;;;;;;;;;;;;19.21;52.53;100468.81;4467396;32;35304;-91
2022/10/28 07:15:56;;;;;;;;;;;;;;;19.10;52.87;100481.97;4467287;32;34915;-91
2022/10/28 07:18:24;;;;;;;;;;;;;;;18.79;53.88;100472.31;4467078;32;33632;-90
2022/10/28 07:20:51;;;;;;;;;;;;;;;17.70;57.27;100477.25;4453149;32;33834;-92
2022/10/28 07:23:19;;;;;;;;;;;;;;;17.48;57.52;100471.91;4467302;32;34346;-92
2022/10/28 07:25:55;;;;;;;;;;;;;;;17.73;57.57;100479.91;4466900;32;34870;-91
2022/10/28 07:28:23;;;;;;;;;;;;;;;17.09;59.53;100482.16;4453170;32;33159;-91
2022/10/28 07:30:51;;;;;;;;;;;;;;;17.84;57.42;100470.38;4453445;32;35121;-95
2022/10/28 07:33:18;;;;;;;;;;;;;;;17.68;57.74;100474.63;4466509;32;34318;-94
2022/10/28 07:35:45;;;;;;;;;;;;;;;17.55;58.17;100472.81;4467240;32;34372;-94
2022/10/28 07:38:12;;;;;;;;;;;;;;;17.37;58.59;100470.09;4467213;32;33409;-93
2022/10/28 07:40:40;;;;;;;;;;;;;;;17.18;59.60;100483.06;4467043;32;34198;-95
2022/10/28 07:43:07;;;;;;;;;;;;;;;17.76;57.52;100482.56;4466979;32;34859;-94
2022/10/28 07:45:34;;;;;;;;;;;;;;;17.32;58.87;100488.41;4453032;32;34121;-94
2022/10/28 07:48:02;;;;;;;;;;;;;;;18.37;55.87;100487.13;4452877;32;33204;-94
2022/10/28 07:50:29;;;;;;;;;;;;;;;18.34;55.99;100493.28;4452880;32;34115;-94
2022/10/28 07:52:57;;;;;;;;;;;;;;;18.98;54.12;100491.59;4440406;32;34256;-93
2022/10/28 07:55:25;;;;;;;;;;;;;;;18.58;55.27;100492.44;4466662;32;34776;-95
2022/10/28 07:57:52;;;;;;;;;;;;;;;18.59;55.09;100494.16;4466316;32;33273;-95
2022/10/28 08:00:20;;;;;;;;;;;;;;;18.94;54.44;100490.72;4467145;32;34448;-95
2022/10/28 08:02:47;;;;;;;;;;;;;;;16.90;59.77;100489.84;4466765;32;34513;-96
2022/10/28 08:05:14;;;;;;;;;;;;;;;18.19;56.51;100488.84;4466972;32;34752;-94
2022/10/28 08:07:42;;;;;;;;;;;;;;;17.36;58.94;100491.94;4453100;32;32493;-95
2022/10/28 08:10:10;;;;;;;;;;;;;;;18.85;54.75;100485.47;4466799;32;33875;-93
2022/10/28 08:12:38;;;;;;;;;;;;;;;17.99;57.31;100480.94;4466839;32;35251;-95
2022/10/28 08:15:08;;;;;;;;;;;;;;;18.14;56.51;100479.19;4467286;32;34005;-96
2022/10/28 08:17:35;;;;;;;;;;;;;;;18.05;56.52;100477.44;4466087;32;33495;-96
2022/10/28 08:20:03;;;;;;;;;;;;;;;18.44;55.24;100468.75;4466762;32;35237;-95
2022/10/28 08:22:30;;;;;;;;;;;;;;;17.40;58.50;100467.50;4466554;32;34271;-94
2022/10/28 08:24:58;;;;;;;;;;;;;;;17.84;57.67;100454.63;4466818;32;34969;-96
2022/10/28 08:27:25;;;;;;;;;;;;;;;17.26;58.95;100464.78;4466679;32;34096;-95
2022/10/28 08:29:52;;;;;;;;;;;;;;;17.27;59.22;100464.81;4466380;32;35187;-94
2022/10/28 08:32:20;;;;;;;;;;;;;;;17.41;58.42;100462.25;4466577;32;35291;-96
2022/10/28 08:34:47;;;;;;;;;;;;;;;17.20;59.65;100455.16;4466474;32;34975;-95
2022/10/28 08:37:15;;;;;;;;;;;;;;;16.71;61.02;100466.97;4466405;32;34285;-94
2022/10/28 08:39:44;;;;;;;;;;;;;;;17.11;59.83;100465.53;4466514;32;34617;-95
2022/10/28 08:42:21;;;;;;;;;;;;;;;17.92;57.29;100471.28;4466385;32;35087;-95
2022/10/28 08:44:52;;;;;;;;;;;;;;;18.23;56.70;100480.13;4468062;32;33888;-93
2022/10/28 08:47:29;;;;;;;;;;;;;;;18.21;56.65;100486.22;4454722;32;33708;-96
2022/10/28 08:50:19;;;;;;;;;;;;;;;19.02;54.58;100478.47;4468525;32;35202;-96
2022/10/28 08:52:53;;;;;;;;;;;;;;;18.60;54.99;100481.91;4468828;32;34287;-94
2022/10/28 08:55:34;;;;;;;;;;;;;;;19.14;53.61;100482.84;4454292;32;35166;-96
2022/10/28 08:58:12;;;;;;;;;;;;;;;17.48;58.00;100494.63;4454604;32;34142;-95
2022/10/28 09:00:39;;;;;;;;;;;;;;;17.77;56.80;100488.66;4454336;32;35097;-96
2022/10/28 09:03:17;;;;;;;;;;;;;;;17.01;59.66;100489.94;4454778;32;35273;-95
2022/10/28 09:05:46;;;;;;;;;;;;;;;17.98;56.61;100494.87;4454586;32;34753;-96
2022/10/28 09:08:23;;;;;;;;;;;;;;;18.78;54.36;100499.47;4454648;32;33867;-95
2022/10/28 09:11:00;;;;;;;;;;;;;;;18.81;54.29;100499.50;4468861;32;34391;-96
2022/10/28 09:13:30;;;;;;;;;;;;;;;17.91;57.12;100502.72;4454400;32;35183;-96
2022/10/28 09:16:04;;;;;;;;;;;;;;;18.35;55.13;100495.00;4468592;32;35079;-93
2022/10/28 09:18:33;;;;;;;;;;;;;;;17.71;57.17;100500.00;4468489;32;34152;-94
2022/10/28 09:21:02;;;;;;;;;;;;;;;18.62;54.73;100493.31;4468616;32;35162;-96
2022/10/28 09:23:32;;;;;;;;;;;;;;;17.40;57.90;100496.31;4468473;32;35187;-95
2022/10/28 09:26:19;;;;;;;;;;;;;;;16.79;60.03;100494.13;4454544;32;33754;-96
2022/10/28 09:28:53;;;;;;;;;;;;;;;17.26;58.90;100490.97;4454148;32;34242;-93
2022/10/28 09:31:23;;;;;;;;;;;;;;;17.82;57.46;100487.84;4454430;32;33386;-96
2022/10/28 09:34:06;;;;;;;;;;;;;;;18.35;55.85;100489.75;4468312;32;34209;-95
2022/10/28 09:36:40;;;;;;;;;;;;;;;18.69;55.12;100492.44;4468363;32;34913;-95
2022/10/28 09:39:18;;;;;;;;;;;;;;;19.32;53.52;100490.72;4468375;32;33106;-95
2022/10/28 09:41:52;;;;;;;;;;;;;;;18.89;54.17;100495.97;4454937;32;35059;-94
2022/10/28 09:44:21;;;;;;;;;;;;;;;18.88;54.22;100494.22;4454170;32;35242;-96
2022/10/28 09:46:50;;;;;;;;;;;;;;;17.82;56.79;100487.84;4467963;32;35297;-95
2022/10/28 09:49:18;;;;;;;;;;;;;;;17.58;57.96;100488.56;4454303;32;33501;-93
2022/10/28 09:51:53;;;;;;;;;;;;;;;18.87;54.42;100481.13;4454174;32;35143;-95
2022/10/28 09:54:26;;;;;;;;;;;;;;;19.08;53.66;100480.22;4467958;32;34332;-95
2022/10/28 09:56:54;;;;;;;;;;;;;;;18.58;54.97;100483.69;4468355;32;34660;-95
2022/10/28 09:59:21;;;;;;;;;;;;;;;19.15;53.22;100487.22;4454364;32;32596;-94
2022/10/28 10:01:48;;;;;;;;;;;;;;;19.25;52.95;100483.69;4468391;32;34393;-95
2022/10/28 10:04:20;;;;;;;;;;;;;;;19.66;52.28;100481.00;4454537;32;34830;-95
2022/10/28 10:06:49;;;;;;;;;;;;;;;19.82;51.58;100479.19;4453952;32;35104;-96
2022/10/28 10:09:20;;;;;;;;;;;;;;;19.72;51.67;100480.09;4454117;32;33922;-95
2022/10/28 10:11:48;;;;;;;;;;;;;;;19.40;52.44;100481.03;4467919;32;35236;-96
2022/10/28 10:14:16;;;;;;;;;;;;;;;18.70;54.22;100486.31;4454097;32;34063;-94
2022/10/28 10:16:44;;;;;;;;;;;;;;;18.64;54.50;100475.81;4454008;32;34843;-95
2022/10/28 10:19:12;;;;;;;;;;;;;;;18.42;55.24;100478.41;4454277;32;33852;-95
2022/10/28 10:21:41;;;;;;;;;;;;;;;19.07;53.52;100478.47;4453538;32;34274;-94
2022/10/28 10:24:22;;;;;;;;;;;;;;;18.43;54.62;100493.28;4467950;32;34431;-95
2022/10/28 10:26:49;;;;;;;;;;;;;;;19.06;53.29;100484.59;4453378;32;34513;-96
2022/10/28 10:29:17;;;;;;;;;;;;;;;19.56;52.15;100492.41;4453958;32;33581;-94
2022/10/28 10:31:44;;;;;;;;;;;;;;;19.49;51.96;100490.66;4453779;32;34319;-96
2022/10/28 10:34:24;;;;;;;;;;;;;;;20.17;50.13;100484.28;4453696;32;35165;-95
2022/10/28 10:36:53;;;;;;;;;;;;;;;20.29;49.80;100490.34;4453890;32;34162;-96
2022/10/28 10:39:30;;;;;;;;;;;;;;;19.53;51.21;100475.75;4453765;32;33454;-94
2022/10/28 10:41:57;;;;;;;;;;;;;;;19.58;51.57;100468.69;4453581;32;35058;-94
2022/10/28 10:44:34;;;;;;;;;;;;;;;19.17;52.17;100470.56;4468007;32;35309;-94
2022/10/28 10:47:01;;;;;;;;;;;;;;;18.54;54.29;100474.03;4467761;32;34569;-94
2022/10/28 10:49:33;;;;;;;;;;;;;;;18.91;53.19;100478.47;4468050;32;33413;-95
2022/10/28 10:52:06;;;;;;;;;;;;;;;18.77;53.80;100481.97;4453628;32;34060;-95
2022/10/28 10:54:34;;;;;;;;;;;;;;;18.29;55.38;100478.38;4453813;32;34128;-96
2022/10/28 10:57:08;;;;;;;;;;;;;;;18.98;53.59;100471.47;4467827;32;33998;-94
2022/10/28 10:59:36;;;;;;;;;;;;;;;19.83;51.37;100462.50;4453535;32;32846;-93
2022/10/28 11:02:03;;;;;;;;;;;;;;;19.52;51.81;100466.09;4467625;32;35213;-94
2022/10/28 11:04:35;;;;;;;;;;;;;;;19.75;51.30;100466.06;4453572;32;34040;-95
2022/10/28 11:07:03;;;;;;;;;;;;;;;19.61;51.51;100464.31;4453217;32;34205;-94
2022/10/28 11:09:31;;;;;;;;;;;;;;;18.61;54.35;100471.44;4453327;32;33406;-94
2022/10/28 11:11:58;;;;;;;;;;;;;;;18.33;55.08;100464.37;4453640;32;33926;-93
2022/10/28 11:14:30;;;;;;;;;;;;;;;17.44;57.87;100470.13;4453532;32;34524;-94
2022/10/28 11:16:58;;;;;;;;;;;;;;;17.60;57.93;100473.72;4453458;32;34370;-94
2022/10/28 11:19:33;;;;;;;;;;;;;;;18.89;54.23;100477.59;4467706;32;33410;-95
2022/10/28 11:22:04;;;;;;;;;;;;;;;18.42;55.28;100470.53;4467414;32;34357;-94
2022/10/28 11:24:50;;;;;;;;;;;;;;;17.97;56.75;100472.16;4453376;32;34000;-94
2022/10/28 11:27:27;;;;;;;;;;;;;;;18.81;54.58;100474.09;4467290;32;34610;-95
2022/10/28 11:29:54;;;;;;;;;;;;;;;19.06;53.65;100471.47;4453360;32;33656;-94
2022/10/28 11:32:27;;;;;;;;;;;;;;;19.00;53.74;100474.97;4467506;32;34255;-94
2022/10/28 11:35:14;;;;;;;;;;;;;;;18.32;55.66;100468.75;4453496;32;34284;-92
2022/10/28 11:37:50;;;;;;;;;;;;;;;17.83;57.42;100472.97;4467489;32;33768;-95
2022/10/28 11:40:21;;;;;;;;;;;;;;;17.86;56.89;100471.25;4467269;32;33241;-93
2022/10/28 11:43:03;;;;;;;;;;;;;;;17.95;56.89;100466.00;4467231;32;33774;-94
2022/10/28 11:45:42;;;;;;;;;;;;;;;18.61;55.17;100462.69;4467246;32;34079;-94
2022/10/28 11:48:38;;;;;;;;;;;;;;;17.51;58.60;100466.69;4453273;32;34873;-94
2022/10/28 11:51:11;;;;;;;;;;;;;;;17.68;58.14;100458.00;4452960;32;33472;-94
2022/10/28 11:53:41;;;;;;;;;;;;;;;18.82;55.18;100446.06;4452559;32;35095;-94
2022/10/28 11:56:18;;;;;;;;;;;;;;;19.24;53.92;100442.50;4452807;32;34295;-94
2022/10/28 11:58:55;;;;;;;;;;;;;;;19.85;51.87;100442.34;4467124;32;34165;-94
2022/10/28 12:01:31;;;;;;;;;;;;;;;19.65;52.16;100429.25;4452955;32;33499;-94
2022/10/28 12:04:16;;;;;;;;;;;;;;;19.26;53.65;100434.63;4452776;32;35014;-95
2022/10/28 12:06:46;;;;;;;;;;;;;;;19.66;52.50;100427.47;4452787;32;34411;-94
2022/10/28 12:09:37;;;;;;;;;;;;;;;19.58;52.55;100423.97;4466893;32;34215;-95
2022/10/28 12:12:10;;;;;;;;;;;;;;;19.05;54.01;100425.88;4430302;32;32959;-94
2022/10/28 12:14:40;;;;;;;;;;;;;;;19.13;53.40;100425.88;4466793;32;33874;-93
2022/10/28 12:17:19;;;;;;;;;;;;;;;18.70;54.83;100424.16;4466870;32;34152;-93
2022/10/28 12:19:50;;;;;;;;;;;;;;;19.19;53.56;100415.34;4468086;32;35124;-93
2022/10/28 12:22:26;;;;;;;;;;;;;;;18.96;54.06;100408.38;4454797;32;33633;-94
2022/10/28 12:24:53;;;;;;;;;;;;;;;18.89;54.22;100414.53;4454665;32;34880;-93
2022/10/28 12:27:22;;;;;;;;;;;;;;;18.77;54.70;100421.56;4454690;32;35307;-93
2022/10/28 12:30:00;;;;;;;;;;;;;;;18.14;56.51;100416.22;4454863;32;34426;-94
2022/10/28 12:32:31;;;;;;;;;;;;;;;18.94;54.63;100412.78;4468945;32;33405;-94
2022/10/28 12:35:01;;;;;;;;;;;;;;;18.83;54.81;100413.69;4454815;32;34104;-93
2022/10/28 12:37:38;;;;;;;;;;;;;;;17.30;59.72;100418.50;4468528;32;34361;-94
2022/10/28 12:40:21;;;;;;;;;;;;;;;16.73;61.45;100415.47;4455428;32;33873;-94
2022/10/28 12:42:51;;;;;;;;;;;;;;;17.33;59.78;100408.91;4454987;32;34100;-92
2022/10/28 12:45:19;;;;;;;;;;;;;;;18.19;57.61;100404.00;4468552;32;34253;-95
2022/10/28 12:47:50;;;;;;;;;;;;;;;18.68;55.74;100404.88;4468531;32;34537;-93
2022/10/28 12:50:26;;;;;;;;;;;;;;;18.87;55.12;100400.53;4454490;32;33828;-92